sensor_id;sensor_type;location;lat;lon;timestamp;P1;durP1;ratioP1;P2;durP2;ratioP2
36009;SDS011;22076;52.182;5.404;2024-03-17T00:01:32;21.83;;;9.73;;
36009;SDS011;22076;52.182;5.404;2024-03-17T00:03:59;22.33;;;10.05;;
36009;SDS011;22076;52.182;5.404;2024-03-17T00:06:26;21.30;;;11.00;;
36009;SDS011;22076;52.182;5.404;2024-03-17T00:08:52;19.15;;;8.70;;
36009;SDS011;22076;52.182;5.404;2024-03-17T00:11:19;22.85;;;9.68;;
36009;SDS011;22076;52.182;5.404;2024-03-17T00:13:45;23.88;;;10.95;;
36009;SDS011;22076;52.182;5.404;2024-03-17T00:16:11;15.32;;;8.98;;
36009;SDS011;22076;52.182;5.404;2024-03-17T00:18:38;22.52;;;11.40;;
36009;SDS011;22076;52.182;5.404;2024-03-17T00:21:05;19.10;;;9.13;;
36009;SDS011;22076;52.182;5.404;2024-03-17T00:23:32;22.58;;;11.25;;
36009;SDS011;22076;52.182;5.404;2024-03-17T00:25:59;27.35;;;10.00;;
36009;SDS011;22076;52.182;5.404;2024-03-17T00:28:25;18.25;;;9.75;;
36009;SDS011;22076;52.182;5.404;2024-03-17T00:30:52;32.45;;;12.90;;
36009;SDS011;22076;52.182;5.404;2024-03-17T00:33:17;24.35;;;10.05;;
36009;SDS011;22076;52.182;5.404;2024-03-17T00:35:45;18.65;;;9.18;;
36009;SDS011;22076;52.182;5.404;2024-03-17T00:38:10;31.80;;;10.90;;
36009;SDS011;22076;52.182;5.404;2024-03-17T00:40:38;23.80;;;10.57;;
36009;SDS011;22076;52.182;5.404;2024-03-17T00:43:06;23.15;;;9.07;;
36009;SDS011;22076;52.182;5.404;2024-03-17T00:45:32;20.55;;;9.23;;
36009;SDS011;22076;52.182;5.404;2024-03-17T00:47:58;27.70;;;11.48;;
36009;SDS011;22076;52.182;5.404;2024-03-17T00:50:25;27.70;;;11.00;;
36009;SDS011;22076;52.182;5.404;2024-03-17T00:52:50;28.70;;;11.50;;
36009;SDS011;22076;52.182;5.404;2024-03-17T00:55:17;27.00;;;10.45;;
36009;SDS011;22076;52.182;5.404;2024-03-17T00:57:44;23.35;;;10.05;;
36009;SDS011;22076;52.182;5.404;2024-03-17T01:00:10;23.17;;;9.32;;
36009;SDS011;22076;52.182;5.404;2024-03-17T01:02:37;20.25;;;9.65;;
36009;SDS011;22076;52.182;5.404;2024-03-17T01:05:05;16.33;;;9.93;;
36009;SDS011;22076;52.182;5.404;2024-03-17T01:07:31;19.63;;;9.20;;
36009;SDS011;22076;52.182;5.404;2024-03-17T01:09:57;16.90;;;7.78;;
36009;SDS011;22076;52.182;5.404;2024-03-17T01:12:23;23.00;;;11.02;;
36009;SDS011;22076;52.182;5.404;2024-03-17T01:14:51;27.40;;;11.45;;
36009;SDS011;22076;52.182;5.404;2024-03-17T01:17:16;28.30;;;11.80;;
36009;SDS011;22076;52.182;5.404;2024-03-17T01:19:44;22.70;;;11.32;;
36009;SDS011;22076;52.182;5.404;2024-03-17T01:22:09;16.30;;;8.80;;
36009;SDS011;22076;52.182;5.404;2024-03-17T01:24:36;18.90;;;10.00;;
36009;SDS011;22076;52.182;5.404;2024-03-17T01:27:04;14.75;;;7.70;;
36009;SDS011;22076;52.182;5.404;2024-03-17T01:29:31;24.13;;;11.95;;
36009;SDS011;22076;52.182;5.404;2024-03-17T01:31:58;18.63;;;9.82;;
36009;SDS011;22076;52.182;5.404;2024-03-17T01:34:25;21.48;;;11.13;;
36009;SDS011;22076;52.182;5.404;2024-03-17T01:36:51;23.70;;;11.38;;
36009;SDS011;22076;52.182;5.404;2024-03-17T01:39:18;23.58;;;10.45;;
36009;SDS011;22076;52.182;5.404;2024-03-17T01:41:43;22.70;;;11.23;;
36009;SDS011;22076;52.182;5.404;2024-03-17T01:44:19;28.55;;;11.65;;
36009;SDS011;22076;52.182;5.404;2024-03-17T01:46:47;23.27;;;10.52;;
36009;SDS011;22076;52.182;5.404;2024-03-17T01:49:15;26.75;;;10.75;;
36009;SDS011;22076;52.182;5.404;2024-03-17T01:51:42;26.45;;;11.20;;
36009;SDS011;22076;52.182;5.404;2024-03-17T01:54:08;23.70;;;11.02;;
36009;SDS011;22076;52.182;5.404;2024-03-17T01:56:34;20.58;;;10.60;;
36009;SDS011;22076;52.182;5.404;2024-03-17T01:59:01;19.20;;;10.30;;
36009;SDS011;22076;52.182;5.404;2024-03-17T02:01:27;20.58;;;10.57;;
36009;SDS011;22076;52.182;5.404;2024-03-17T02:03:53;23.70;;;11.52;;
36009;SDS011;22076;52.182;5.404;2024-03-17T02:06:21;24.67;;;10.77;;
36009;SDS011;22076;52.182;5.404;2024-03-17T02:08:48;18.35;;;10.18;;
36009;SDS011;22076;52.182;5.404;2024-03-17T02:11:23;18.38;;;9.90;;
36009;SDS011;22076;52.182;5.404;2024-03-17T02:13:50;19.73;;;10.15;;
36009;SDS011;22076;52.182;5.404;2024-03-17T02:16:17;22.50;;;9.98;;
36009;SDS011;22076;52.182;5.404;2024-03-17T02:18:44;22.73;;;11.27;;
36009;SDS011;22076;52.182;5.404;2024-03-17T02:21:10;24.60;;;10.10;;
36009;SDS011;22076;52.182;5.404;2024-03-17T02:23:39;24.75;;;10.80;;
36009;SDS011;22076;52.182;5.404;2024-03-17T02:26:04;22.27;;;9.90;;
36009;SDS011;22076;52.182;5.404;2024-03-17T02:28:37;21.90;;;10.77;;
36009;SDS011;22076;52.182;5.404;2024-03-17T02:31:04;18.60;;;9.80;;
36009;SDS011;22076;52.182;5.404;2024-03-17T02:33:31;25.13;;;10.73;;
36009;SDS011;22076;52.182;5.404;2024-03-17T02:35:56;18.98;;;9.55;;
36009;SDS011;22076;52.182;5.404;2024-03-17T02:38:23;24.70;;;11.30;;
36009;SDS011;22076;52.182;5.404;2024-03-17T02:41:05;17.95;;;9.63;;
36009;SDS011;22076;52.182;5.404;2024-03-17T02:43:31;24.35;;;9.75;;
36009;SDS011;22076;52.182;5.404;2024-03-17T02:45:58;23.45;;;11.13;;
36009;SDS011;22076;52.182;5.404;2024-03-17T02:48:24;25.75;;;11.00;;
36009;SDS011;22076;52.182;5.404;2024-03-17T02:50:51;22.60;;;10.63;;
36009;SDS011;22076;52.182;5.404;2024-03-17T02:53:18;22.02;;;11.05;;
36009;SDS011;22076;52.182;5.404;2024-03-17T02:55:45;21.33;;;9.05;;
36009;SDS011;22076;52.182;5.404;2024-03-17T02:58:13;25.85;;;10.48;;
36009;SDS011;22076;52.182;5.404;2024-03-17T03:00:39;20.85;;;10.93;;
36009;SDS011;22076;52.182;5.404;2024-03-17T03:03:06;18.40;;;10.55;;
36009;SDS011;22076;52.182;5.404;2024-03-17T03:05:32;23.20;;;10.57;;
36009;SDS011;22076;52.182;5.404;2024-03-17T03:07:59;23.42;;;11.35;;
36009;SDS011;22076;52.182;5.404;2024-03-17T03:10:25;28.73;;;10.68;;
36009;SDS011;22076;52.182;5.404;2024-03-17T03:12:52;21.70;;;10.10;;
36009;SDS011;22076;52.182;5.404;2024-03-17T03:15:20;22.38;;;9.75;;
36009;SDS011;22076;52.182;5.404;2024-03-17T03:17:46;22.80;;;10.57;;
36009;SDS011;22076;52.182;5.404;2024-03-17T03:20:13;25.67;;;10.48;;
36009;SDS011;22076;52.182;5.404;2024-03-17T03:22:40;17.67;;;9.63;;
36009;SDS011;22076;52.182;5.404;2024-03-17T03:25:07;19.23;;;10.93;;
36009;SDS011;22076;52.182;5.404;2024-03-17T03:27:34;21.38;;;10.40;;
36009;SDS011;22076;52.182;5.404;2024-03-17T03:30:00;18.13;;;9.05;;
36009;SDS011;22076;52.182;5.404;2024-03-17T03:32:28;20.23;;;10.15;;
36009;SDS011;22076;52.182;5.404;2024-03-17T03:34:55;21.17;;;10.02;;
36009;SDS011;22076;52.182;5.404;2024-03-17T03:37:22;16.13;;;8.32;;
36009;SDS011;22076;52.182;5.404;2024-03-17T03:39:50;18.75;;;9.10;;
36009;SDS011;22076;52.182;5.404;2024-03-17T03:42:17;16.63;;;9.02;;
36009;SDS011;22076;52.182;5.404;2024-03-17T03:44:44;19.55;;;9.98;;
36009;SDS011;22076;52.182;5.404;2024-03-17T03:47:14;18.42;;;10.75;;
36009;SDS011;22076;52.182;5.404;2024-03-17T03:49:42;23.80;;;10.75;;
36009;SDS011;22076;52.182;5.404;2024-03-17T03:52:10;28.15;;;10.55;;
36009;SDS011;22076;52.182;5.404;2024-03-17T03:54:37;14.15;;;8.95;;
36009;SDS011;22076;52.182;5.404;2024-03-17T03:57:04;20.20;;;9.82;;
36009;SDS011;22076;52.182;5.404;2024-03-17T03:59:30;17.65;;;9.30;;
36009;SDS011;22076;52.182;5.404;2024-03-17T04:01:56;22.45;;;10.90;;
36009;SDS011;22076;52.182;5.404;2024-03-17T04:04:23;21.40;;;10.93;;
36009;SDS011;22076;52.182;5.404;2024-03-17T04:06:51;21.65;;;10.15;;
36009;SDS011;22076;52.182;5.404;2024-03-17T04:09:18;24.77;;;10.70;;
36009;SDS011;22076;52.182;5.404;2024-03-17T04:11:45;20.95;;;11.63;;
36009;SDS011;22076;52.182;5.404;2024-03-17T04:14:11;22.27;;;12.07;;
36009;SDS011;22076;52.182;5.404;2024-03-17T04:16:38;19.73;;;10.65;;
36009;SDS011;22076;52.182;5.404;2024-03-17T04:19:05;13.60;;;7.95;;
36009;SDS011;22076;52.182;5.404;2024-03-17T04:21:33;19.65;;;9.50;;
36009;SDS011;22076;52.182;5.404;2024-03-17T04:24:01;20.67;;;10.00;;
36009;SDS011;22076;52.182;5.404;2024-03-17T04:26:28;16.98;;;10.60;;
36009;SDS011;22076;52.182;5.404;2024-03-17T04:28:54;22.67;;;10.93;;
36009;SDS011;22076;52.182;5.404;2024-03-17T04:31:21;20.10;;;10.02;;
36009;SDS011;22076;52.182;5.404;2024-03-17T04:33:48;21.90;;;10.73;;
36009;SDS011;22076;52.182;5.404;2024-03-17T04:36:15;18.52;;;10.55;;
36009;SDS011;22076;52.182;5.404;2024-03-17T04:38:42;22.42;;;10.77;;
36009;SDS011;22076;52.182;5.404;2024-03-17T04:41:10;22.50;;;11.32;;
36009;SDS011;22076;52.182;5.404;2024-03-17T04:43:36;19.75;;;10.95;;
36009;SDS011;22076;52.182;5.404;2024-03-17T04:46:04;19.17;;;10.75;;
36009;SDS011;22076;52.182;5.404;2024-03-17T04:48:32;24.60;;;10.82;;
36009;SDS011;22076;52.182;5.404;2024-03-17T04:50:59;20.80;;;10.48;;
36009;SDS011;22076;52.182;5.404;2024-03-17T04:53:26;22.10;;;10.25;;
36009;SDS011;22076;52.182;5.404;2024-03-17T04:56:02;18.48;;;9.38;;
36009;SDS011;22076;52.182;5.404;2024-03-17T04:58:32;17.83;;;10.93;;
36009;SDS011;22076;52.182;5.404;2024-03-17T05:01:03;24.88;;;11.20;;
36009;SDS011;22076;52.182;5.404;2024-03-17T05:03:31;23.20;;;11.55;;
36009;SDS011;22076;52.182;5.404;2024-03-17T05:05:58;20.35;;;11.90;;
36009;SDS011;22076;52.182;5.404;2024-03-17T05:08:26;21.75;;;9.75;;
36009;SDS011;22076;52.182;5.404;2024-03-17T05:10:55;21.95;;;11.30;;
36009;SDS011;22076;52.182;5.404;2024-03-17T05:13:23;23.25;;;12.00;;
36009;SDS011;22076;52.182;5.404;2024-03-17T05:15:50;19.80;;;12.15;;
36009;SDS011;22076;52.182;5.404;2024-03-17T05:18:17;22.52;;;10.95;;
36009;SDS011;22076;52.182;5.404;2024-03-17T05:20:45;20.00;;;10.77;;
36009;SDS011;22076;52.182;5.404;2024-03-17T05:23:12;29.38;;;13.20;;
36009;SDS011;22076;52.182;5.404;2024-03-17T05:25:38;21.77;;;11.27;;
36009;SDS011;22076;52.182;5.404;2024-03-17T05:28:05;24.65;;;11.68;;
36009;SDS011;22076;52.182;5.404;2024-03-17T05:30:31;24.65;;;12.38;;
36009;SDS011;22076;52.182;5.404;2024-03-17T05:32:59;26.40;;;13.13;;
36009;SDS011;22076;52.182;5.404;2024-03-17T05:35:26;21.92;;;11.52;;
36009;SDS011;22076;52.182;5.404;2024-03-17T05:37:52;22.88;;;11.95;;
36009;SDS011;22076;52.182;5.404;2024-03-17T05:40:19;28.30;;;12.95;;
36009;SDS011;22076;52.182;5.404;2024-03-17T05:42:45;24.98;;;13.57;;
36009;SDS011;22076;52.182;5.404;2024-03-17T05:45:12;24.48;;;13.35;;
36009;SDS011;22076;52.182;5.404;2024-03-17T05:47:38;23.58;;;13.48;;
36009;SDS011;22076;52.182;5.404;2024-03-17T05:50:08;26.15;;;13.60;;
36009;SDS011;22076;52.182;5.404;2024-03-17T05:52:35;24.25;;;11.38;;
36009;SDS011;22076;52.182;5.404;2024-03-17T05:55:01;23.50;;;10.55;;
36009;SDS011;22076;52.182;5.404;2024-03-17T05:57:28;27.40;;;13.45;;
36009;SDS011;22076;52.182;5.404;2024-03-17T05:59:54;21.25;;;12.32;;
36009;SDS011;22076;52.182;5.404;2024-03-17T06:02:21;23.60;;;12.65;;
36009;SDS011;22076;52.182;5.404;2024-03-17T06:04:47;25.80;;;13.10;;
36009;SDS011;22076;52.182;5.404;2024-03-17T06:07:16;21.30;;;10.80;;
36009;SDS011;22076;52.182;5.404;2024-03-17T06:09:43;21.10;;;12.88;;
36009;SDS011;22076;52.182;5.404;2024-03-17T06:12:12;28.55;;;12.85;;
36009;SDS011;22076;52.182;5.404;2024-03-17T06:14:39;22.13;;;12.85;;
36009;SDS011;22076;52.182;5.404;2024-03-17T06:17:05;23.90;;;13.30;;
36009;SDS011;22076;52.182;5.404;2024-03-17T06:19:33;24.45;;;14.57;;
36009;SDS011;22076;52.182;5.404;2024-03-17T06:22:00;28.85;;;13.13;;
36009;SDS011;22076;52.182;5.404;2024-03-17T06:24:27;23.38;;;12.20;;
36009;SDS011;22076;52.182;5.404;2024-03-17T06:26:54;21.35;;;11.30;;
36009;SDS011;22076;52.182;5.404;2024-03-17T06:29:21;26.05;;;14.43;;
36009;SDS011;22076;52.182;5.404;2024-03-17T06:31:47;24.35;;;13.27;;
36009;SDS011;22076;52.182;5.404;2024-03-17T06:34:14;21.42;;;13.00;;
36009;SDS011;22076;52.182;5.404;2024-03-17T06:36:41;24.15;;;13.35;;
36009;SDS011;22076;52.182;5.404;2024-03-17T06:39:08;25.23;;;14.63;;
36009;SDS011;22076;52.182;5.404;2024-03-17T06:41:36;23.58;;;13.20;;
36009;SDS011;22076;52.182;5.404;2024-03-17T06:44:02;30.30;;;13.82;;
36009;SDS011;22076;52.182;5.404;2024-03-17T06:46:31;26.27;;;14.73;;
36009;SDS011;22076;52.182;5.404;2024-03-17T06:48:58;23.33;;;12.98;;
36009;SDS011;22076;52.182;5.404;2024-03-17T06:51:24;24.75;;;12.48;;
36009;SDS011;22076;52.182;5.404;2024-03-17T06:53:51;24.92;;;13.38;;
36009;SDS011;22076;52.182;5.404;2024-03-17T06:56:17;22.58;;;13.38;;
36009;SDS011;22076;52.182;5.404;2024-03-17T06:58:45;26.80;;;13.48;;
36009;SDS011;22076;52.182;5.404;2024-03-17T07:01:12;26.38;;;13.43;;
36009;SDS011;22076;52.182;5.404;2024-03-17T07:03:38;22.77;;;13.30;;
36009;SDS011;22076;52.182;5.404;2024-03-17T07:06:05;24.90;;;12.57;;
36009;SDS011;22076;52.182;5.404;2024-03-17T07:08:33;20.20;;;11.55;;
36009;SDS011;22076;52.182;5.404;2024-03-17T07:11:00;31.60;;;14.20;;
36009;SDS011;22076;52.182;5.404;2024-03-17T07:13:28;24.63;;;13.68;;
36009;SDS011;22076;52.182;5.404;2024-03-17T07:15:57;22.42;;;13.13;;
36009;SDS011;22076;52.182;5.404;2024-03-17T07:18:24;23.90;;;12.32;;
36009;SDS011;22076;52.182;5.404;2024-03-17T07:20:52;26.48;;;13.40;;
36009;SDS011;22076;52.182;5.404;2024-03-17T07:23:18;22.45;;;13.63;;
36009;SDS011;22076;52.182;5.404;2024-03-17T07:25:51;26.13;;;13.48;;
36009;SDS011;22076;52.182;5.404;2024-03-17T07:28:18;22.33;;;12.70;;
36009;SDS011;22076;52.182;5.404;2024-03-17T07:30:46;27.55;;;13.93;;
36009;SDS011;22076;52.182;5.404;2024-03-17T07:33:14;22.58;;;12.88;;
36009;SDS011;22076;52.182;5.404;2024-03-17T07:35:46;21.83;;;12.50;;
36009;SDS011;22076;52.182;5.404;2024-03-17T07:38:13;23.08;;;13.40;;
36009;SDS011;22076;52.182;5.404;2024-03-17T07:40:40;25.10;;;13.10;;
36009;SDS011;22076;52.182;5.404;2024-03-17T07:43:07;27.30;;;14.43;;
36009;SDS011;22076;52.182;5.404;2024-03-17T07:45:33;23.75;;;13.60;;
36009;SDS011;22076;52.182;5.404;2024-03-17T07:48:00;23.90;;;13.13;;
36009;SDS011;22076;52.182;5.404;2024-03-17T07:50:28;25.95;;;14.93;;
36009;SDS011;22076;52.182;5.404;2024-03-17T07:52:54;25.73;;;14.13;;
36009;SDS011;22076;52.182;5.404;2024-03-17T07:55:21;24.45;;;14.00;;
36009;SDS011;22076;52.182;5.404;2024-03-17T07:57:47;30.65;;;14.18;;
36009;SDS011;22076;52.182;5.404;2024-03-17T08:00:14;23.63;;;13.95;;
36009;SDS011;22076;52.182;5.404;2024-03-17T08:02:41;23.88;;;14.52;;
36009;SDS011;22076;52.182;5.404;2024-03-17T08:05:10;27.08;;;14.15;;
36009;SDS011;22076;52.182;5.404;2024-03-17T08:07:38;24.85;;;13.55;;
36009;SDS011;22076;52.182;5.404;2024-03-17T08:10:07;22.60;;;13.00;;
36009;SDS011;22076;52.182;5.404;2024-03-17T08:12:33;22.98;;;13.35;;
36009;SDS011;22076;52.182;5.404;2024-03-17T08:15:00;25.27;;;13.02;;
36009;SDS011;22076;52.182;5.404;2024-03-17T08:17:26;22.30;;;13.18;;
36009;SDS011;22076;52.182;5.404;2024-03-17T08:19:53;24.05;;;13.50;;
36009;SDS011;22076;52.182;5.404;2024-03-17T08:22:20;22.75;;;13.50;;
36009;SDS011;22076;52.182;5.404;2024-03-17T08:24:47;24.50;;;12.82;;
36009;SDS011;22076;52.182;5.404;2024-03-17T08:27:14;29.77;;;14.75;;
36009;SDS011;22076;52.182;5.404;2024-03-17T08:29:41;28.88;;;13.68;;
36009;SDS011;22076;52.182;5.404;2024-03-17T08:32:08;25.67;;;13.30;;
36009;SDS011;22076;52.182;5.404;2024-03-17T08:34:34;23.73;;;13.07;;
36009;SDS011;22076;52.182;5.404;2024-03-17T08:37:01;25.65;;;13.50;;
36009;SDS011;22076;52.182;5.404;2024-03-17T08:39:27;25.45;;;13.35;;
36009;SDS011;22076;52.182;5.404;2024-03-17T08:41:55;27.30;;;13.98;;
36009;SDS011;22076;52.182;5.404;2024-03-17T08:44:22;22.95;;;13.02;;
36009;SDS011;22076;52.182;5.404;2024-03-17T08:46:48;25.70;;;13.68;;
36009;SDS011;22076;52.182;5.404;2024-03-17T08:49:15;22.88;;;13.23;;
36009;SDS011;22076;52.182;5.404;2024-03-17T08:51:41;22.42;;;13.95;;
36009;SDS011;22076;52.182;5.404;2024-03-17T08:54:08;26.90;;;14.35;;
36009;SDS011;22076;52.182;5.404;2024-03-17T08:56:34;25.42;;;12.90;;
36009;SDS011;22076;52.182;5.404;2024-03-17T08:59:03;29.95;;;13.80;;
36009;SDS011;22076;52.182;5.404;2024-03-17T09:01:29;22.35;;;13.15;;
36009;SDS011;22076;52.182;5.404;2024-03-17T09:03:57;25.58;;;13.50;;
36009;SDS011;22076;52.182;5.404;2024-03-17T09:06:26;21.38;;;12.30;;
36009;SDS011;22076;52.182;5.404;2024-03-17T09:08:55;22.02;;;12.70;;
36009;SDS011;22076;52.182;5.404;2024-03-17T09:11:21;24.17;;;13.93;;
36009;SDS011;22076;52.182;5.404;2024-03-17T09:13:50;22.58;;;12.98;;
36009;SDS011;22076;52.182;5.404;2024-03-17T09:16:18;22.88;;;13.90;;
36009;SDS011;22076;52.182;5.404;2024-03-17T09:18:47;21.25;;;13.05;;
36009;SDS011;22076;52.182;5.404;2024-03-17T09:21:14;22.20;;;11.98;;
36009;SDS011;22076;52.182;5.404;2024-03-17T09:23:42;18.95;;;10.15;;
36009;SDS011;22076;52.182;5.404;2024-03-17T09:26:09;22.48;;;12.55;;
36009;SDS011;22076;52.182;5.404;2024-03-17T09:28:38;21.20;;;12.20;;
36009;SDS011;22076;52.182;5.404;2024-03-17T09:31:04;20.38;;;12.23;;
36009;SDS011;22076;52.182;5.404;2024-03-17T09:33:33;23.67;;;13.40;;
36009;SDS011;22076;52.182;5.404;2024-03-17T09:36:02;19.00;;;11.73;;
36009;SDS011;22076;52.182;5.404;2024-03-17T09:38:31;22.95;;;13.10;;
36009;SDS011;22076;52.182;5.404;2024-03-17T09:40:58;20.95;;;11.38;;
36009;SDS011;22076;52.182;5.404;2024-03-17T09:43:26;23.80;;;12.35;;
36009;SDS011;22076;52.182;5.404;2024-03-17T09:45:53;19.17;;;11.63;;
36009;SDS011;22076;52.182;5.404;2024-03-17T09:48:22;23.27;;;11.82;;
36009;SDS011;22076;52.182;5.404;2024-03-17T09:50:52;21.02;;;12.40;;
36009;SDS011;22076;52.182;5.404;2024-03-17T09:53:22;20.40;;;11.43;;
36009;SDS011;22076;52.182;5.404;2024-03-17T09:55:51;20.98;;;11.68;;
36009;SDS011;22076;52.182;5.404;2024-03-17T09:58:19;18.70;;;11.13;;
36009;SDS011;22076;52.182;5.404;2024-03-17T10:00:46;21.40;;;12.38;;
36009;SDS011;22076;52.182;5.404;2024-03-17T10:03:14;19.73;;;11.77;;
36009;SDS011;22076;52.182;5.404;2024-03-17T10:06:12;19.85;;;12.93;;
36009;SDS011;22076;52.182;5.404;2024-03-17T10:08:46;19.48;;;11.23;;
36009;SDS011;22076;52.182;5.404;2024-03-17T10:11:13;20.08;;;12.10;;
36009;SDS011;22076;52.182;5.404;2024-03-17T10:13:41;20.90;;;11.18;;
36009;SDS011;22076;52.182;5.404;2024-03-17T10:16:21;22.15;;;11.80;;
36009;SDS011;22076;52.182;5.404;2024-03-17T10:18:50;24.52;;;13.05;;
36009;SDS011;22076;52.182;5.404;2024-03-17T10:21:25;26.35;;;11.98;;
36009;SDS011;22076;52.182;5.404;2024-03-17T10:24:06;23.05;;;12.43;;
36009;SDS011;22076;52.182;5.404;2024-03-17T10:26:36;20.50;;;11.25;;
36009;SDS011;22076;52.182;5.404;2024-03-17T10:29:15;30.63;;;13.10;;
36009;SDS011;22076;52.182;5.404;2024-03-17T10:31:49;27.02;;;12.45;;
36009;SDS011;22076;52.182;5.404;2024-03-17T10:34:17;23.45;;;12.35;;
36009;SDS011;22076;52.182;5.404;2024-03-17T10:36:45;19.60;;;11.82;;
36009;SDS011;22076;52.182;5.404;2024-03-17T10:39:23;21.33;;;12.40;;
36009;SDS011;22076;52.182;5.404;2024-03-17T10:41:54;16.85;;;10.32;;
36009;SDS011;22076;52.182;5.404;2024-03-17T10:44:22;21.02;;;12.05;;
36009;SDS011;22076;52.182;5.404;2024-03-17T10:46:49;24.95;;;11.75;;
36009;SDS011;22076;52.182;5.404;2024-03-17T10:49:19;25.02;;;11.82;;
36009;SDS011;22076;52.182;5.404;2024-03-17T10:51:48;20.00;;;11.00;;
36009;SDS011;22076;52.182;5.404;2024-03-17T10:54:21;20.75;;;11.40;;
36009;SDS011;22076;52.182;5.404;2024-03-17T10:56:51;22.80;;;11.23;;
36009;SDS011;22076;52.182;5.404;2024-03-17T10:59:20;20.50;;;10.80;;
36009;SDS011;22076;52.182;5.404;2024-03-17T11:01:54;18.85;;;10.80;;
36009;SDS011;22076;52.182;5.404;2024-03-17T11:04:22;24.27;;;11.48;;
36009;SDS011;22076;52.182;5.404;2024-03-17T11:06:50;20.60;;;10.95;;
36009;SDS011;22076;52.182;5.404;2024-03-17T11:09:17;18.45;;;10.90;;
36009;SDS011;22076;52.182;5.404;2024-03-17T11:11:45;16.67;;;10.68;;
36009;SDS011;22076;52.182;5.404;2024-03-17T11:14:17;18.98;;;11.18;;
36009;SDS011;22076;52.182;5.404;2024-03-17T11:16:45;18.60;;;10.85;;
36009;SDS011;22076;52.182;5.404;2024-03-17T11:19:14;15.85;;;10.13;;
36009;SDS011;22076;52.182;5.404;2024-03-17T11:21:42;17.77;;;11.35;;
36009;SDS011;22076;52.182;5.404;2024-03-17T11:24:19;18.20;;;10.68;;
36009;SDS011;22076;52.182;5.404;2024-03-17T11:26:47;19.92;;;10.48;;
36009;SDS011;22076;52.182;5.404;2024-03-17T11:29:26;19.88;;;10.35;;
36009;SDS011;22076;52.182;5.404;2024-03-17T11:31:53;20.42;;;11.10;;
36009;SDS011;22076;52.182;5.404;2024-03-17T11:34:30;17.08;;;9.15;;
36009;SDS011;22076;52.182;5.404;2024-03-17T11:37:01;17.85;;;10.00;;
36009;SDS011;22076;52.182;5.404;2024-03-17T11:39:46;20.05;;;9.90;;
36009;SDS011;22076;52.182;5.404;2024-03-17T11:42:18;21.40;;;10.85;;
36009;SDS011;22076;52.182;5.404;2024-03-17T11:44:54;20.45;;;10.13;;
36009;SDS011;22076;52.182;5.404;2024-03-17T11:47:32;13.43;;;7.75;;
36009;SDS011;22076;52.182;5.404;2024-03-17T11:50:03;16.65;;;8.82;;
36009;SDS011;22076;52.182;5.404;2024-03-17T11:52:30;19.00;;;8.38;;
36009;SDS011;22076;52.182;5.404;2024-03-17T11:54:57;17.95;;;9.57;;
36009;SDS011;22076;52.182;5.404;2024-03-17T11:57:25;17.42;;;9.10;;
36009;SDS011;22076;52.182;5.404;2024-03-17T11:59:53;18.08;;;9.48;;
36009;SDS011;22076;52.182;5.404;2024-03-17T12:02:21;15.35;;;9.32;;
36009;SDS011;22076;52.182;5.404;2024-03-17T12:04:50;22.90;;;8.98;;
36009;SDS011;22076;52.182;5.404;2024-03-17T12:07:17;10.95;;;7.95;;
36009;SDS011;22076;52.182;5.404;2024-03-17T12:09:45;13.05;;;8.73;;
36009;SDS011;22076;52.182;5.404;2024-03-17T12:12:16;14.50;;;7.93;;
36009;SDS011;22076;52.182;5.404;2024-03-17T12:14:44;14.13;;;8.55;;
36009;SDS011;22076;52.182;5.404;2024-03-17T12:17:12;14.35;;;8.82;;
36009;SDS011;22076;52.182;5.404;2024-03-17T12:19:39;15.98;;;8.98;;
36009;SDS011;22076;52.182;5.404;2024-03-17T12:22:07;13.80;;;9.05;;
36009;SDS011;22076;52.182;5.404;2024-03-17T12:24:34;17.30;;;9.85;;
36009;SDS011;22076;52.182;5.404;2024-03-17T12:27:03;15.95;;;9.32;;
36009;SDS011;22076;52.182;5.404;2024-03-17T12:29:32;14.15;;;9.13;;
36009;SDS011;22076;52.182;5.404;2024-03-17T12:32:02;23.27;;;9.70;;
36009;SDS011;22076;52.182;5.404;2024-03-17T12:34:31;18.88;;;10.18;;
36009;SDS011;22076;52.182;5.404;2024-03-17T12:36:59;13.60;;;8.98;;
36009;SDS011;22076;52.182;5.404;2024-03-17T12:39:25;14.40;;;9.18;;
36009;SDS011;22076;52.182;5.404;2024-03-17T12:42:03;17.00;;;9.45;;
36009;SDS011;22076;52.182;5.404;2024-03-17T12:44:29;14.15;;;9.63;;
36009;SDS011;22076;52.182;5.404;2024-03-17T12:46:58;13.02;;;8.27;;
36009;SDS011;22076;52.182;5.404;2024-03-17T12:49:25;22.60;;;9.98;;
36009;SDS011;22076;52.182;5.404;2024-03-17T12:51:52;12.80;;;9.23;;
36009;SDS011;22076;52.182;5.404;2024-03-17T12:54:19;14.73;;;9.55;;
36009;SDS011;22076;52.182;5.404;2024-03-17T12:56:48;17.17;;;9.88;;
36009;SDS011;22076;52.182;5.404;2024-03-17T12:59:40;14.77;;;9.15;;
36009;SDS011;22076;52.182;5.404;2024-03-17T13:05:06;17.48;;;9.65;;
36009;SDS011;22076;52.182;5.404;2024-03-17T13:07:34;15.35;;;9.25;;
36009;SDS011;22076;52.182;5.404;2024-03-17T13:10:01;13.48;;;8.50;;
36009;SDS011;22076;52.182;5.404;2024-03-17T13:12:38;18.60;;;9.00;;
36009;SDS011;22076;52.182;5.404;2024-03-17T13:15:06;15.85;;;10.00;;
36009;SDS011;22076;52.182;5.404;2024-03-17T13:17:35;15.82;;;9.68;;
36009;SDS011;22076;52.182;5.404;2024-03-17T13:20:02;15.20;;;10.60;;
36009;SDS011;22076;52.182;5.404;2024-03-17T13:22:33;17.98;;;9.60;;
36009;SDS011;22076;52.182;5.404;2024-03-17T13:25:00;14.02;;;8.68;;
36009;SDS011;22076;52.182;5.404;2024-03-17T13:27:26;18.52;;;9.77;;
36009;SDS011;22076;52.182;5.404;2024-03-17T13:29:53;18.70;;;10.35;;
36009;SDS011;22076;52.182;5.404;2024-03-17T13:32:21;17.20;;;11.00;;
36009;SDS011;22076;52.182;5.404;2024-03-17T13:34:48;13.73;;;9.18;;
36009;SDS011;22076;52.182;5.404;2024-03-17T13:37:16;20.50;;;10.32;;
36009;SDS011;22076;52.182;5.404;2024-03-17T13:39:43;14.55;;;9.07;;
36009;SDS011;22076;52.182;5.404;2024-03-17T13:42:09;15.80;;;8.98;;
36009;SDS011;22076;52.182;5.404;2024-03-17T13:44:36;17.77;;;10.05;;
36009;SDS011;22076;52.182;5.404;2024-03-17T13:47:03;16.60;;;9.10;;
36009;SDS011;22076;52.182;5.404;2024-03-17T13:49:31;16.83;;;9.43;;
36009;SDS011;22076;52.182;5.404;2024-03-17T13:51:58;16.75;;;10.07;;
36009;SDS011;22076;52.182;5.404;2024-03-17T13:54:25;19.63;;;10.43;;
36009;SDS011;22076;52.182;5.404;2024-03-17T13:56:53;19.17;;;10.15;;
36009;SDS011;22076;52.182;5.404;2024-03-17T13:59:19;18.30;;;10.18;;
36009;SDS011;22076;52.182;5.404;2024-03-17T14:01:47;14.07;;;9.45;;
36009;SDS011;22076;52.182;5.404;2024-03-17T14:04:14;15.70;;;9.77;;
36009;SDS011;22076;52.182;5.404;2024-03-17T14:06:43;17.33;;;10.07;;
36009;SDS011;22076;52.182;5.404;2024-03-17T14:09:10;17.33;;;10.82;;
36009;SDS011;22076;52.182;5.404;2024-03-17T14:11:37;14.18;;;7.85;;
36009;SDS011;22076;52.182;5.404;2024-03-17T14:14:04;17.50;;;10.20;;
36009;SDS011;22076;52.182;5.404;2024-03-17T14:16:31;15.15;;;9.25;;
36009;SDS011;22076;52.182;5.404;2024-03-17T14:18:58;17.13;;;11.45;;
36009;SDS011;22076;52.182;5.404;2024-03-17T14:21:25;17.13;;;9.57;;
36009;SDS011;22076;52.182;5.404;2024-03-17T14:23:54;14.63;;;9.00;;
36009;SDS011;22076;52.182;5.404;2024-03-17T14:26:21;14.55;;;7.95;;
36009;SDS011;22076;52.182;5.404;2024-03-17T14:28:48;15.38;;;9.60;;
36009;SDS011;22076;52.182;5.404;2024-03-17T14:31:15;15.95;;;11.45;;
36009;SDS011;22076;52.182;5.404;2024-03-17T14:33:42;16.25;;;10.07;;